sensor_id;sensor_type;location;lat;lon;timestamp;P1;durP1;ratioP1;P2;durP2;ratioP2
57295;SDS011;43146;50.976;18.216;2023-05-07T00:00:36;10.00;;;4.10;;
57295;SDS011;43146;50.976;18.216;2023-05-07T00:03:02;7.10;;;2.70;;
57295;SDS011;43146;50.976;18.216;2023-05-07T00:05:28;9.30;;;3.70;;
57295;SDS011;43146;50.976;18.216;2023-05-07T00:07:54;10.60;;;4.10;;
57295;SDS011;43146;50.976;18.216;2023-05-07T00:10:20;9.80;;;4.60;;
57295;SDS011;43146;50.976;18.216;2023-05-07T00:12:46;13.40;;;4.50;;
57295;SDS011;43146;50.976;18.216;2023-05-07T00:15:12;9.60;;;3.90;;
57295;SDS011;43146;50.976;18.216;2023-05-07T00:17:37;9.20;;;3.90;;
57295;SDS011;43146;50.976;18.216;2023-05-07T00:20:03;10.00;;;4.20;;
57295;SDS011;43146;50.976;18.216;2023-05-07T00:22:30;11.10;;;4.90;;
57295;SDS011;43146;50.976;18.216;2023-05-07T00:24:57;8.90;;;3.90;;
57295;SDS011;43146;50.976;18.216;2023-05-07T00:27:24;9.90;;;3.40;;
57295;SDS011;43146;50.976;18.216;2023-05-07T00:29:50;10.00;;;4.80;;
57295;SDS011;43146;50.976;18.216;2023-05-07T00:32:16;9.60;;;4.40;;
57295;SDS011;43146;50.976;18.216;2023-05-07T00:34:42;10.70;;;3.70;;
57295;SDS011;43146;50.976;18.216;2023-05-07T00:37:08;8.60;;;3.70;;
57295;SDS011;43146;50.976;18.216;2023-05-07T00:39:34;9.30;;;4.30;;
57295;SDS011;43146;50.976;18.216;2023-05-07T00:42:00;9.60;;;3.90;;
57295;SDS011;43146;50.976;18.216;2023-05-07T00:44:26;9.80;;;4.70;;
57295;SDS011;43146;50.976;18.216;2023-05-07T00:46:53;9.40;;;3.80;;
57295;SDS011;43146;50.976;18.216;2023-05-07T00:49:20;9.80;;;4.40;;
57295;SDS011;43146;50.976;18.216;2023-05-07T00:51:45;13.30;;;4.70;;
57295;SDS011;43146;50.976;18.216;2023-05-07T00:54:11;10.60;;;4.80;;
57295;SDS011;43146;50.976;18.216;2023-05-07T00:56:37;8.60;;;3.70;;
57295;SDS011;43146;50.976;18.216;2023-05-07T00:59:04;10.70;;;4.00;;
57295;SDS011;43146;50.976;18.216;2023-05-07T01:01:31;12.60;;;5.30;;
57295;SDS011;43146;50.976;18.216;2023-05-07T01:03:57;10.70;;;4.50;;
57295;SDS011;43146;50.976;18.216;2023-05-07T01:06:23;11.60;;;5.40;;
57295;SDS011;43146;50.976;18.216;2023-05-07T01:08:50;8.50;;;4.00;;
57295;SDS011;43146;50.976;18.216;2023-05-07T01:11:18;12.30;;;5.30;;
57295;SDS011;43146;50.976;18.216;2023-05-07T01:13:46;11.60;;;4.60;;
57295;SDS011;43146;50.976;18.216;2023-05-07T01:16:12;9.00;;;3.90;;
57295;SDS011;43146;50.976;18.216;2023-05-07T01:18:38;9.70;;;3.20;;
57295;SDS011;43146;50.976;18.216;2023-05-07T01:21:04;8.10;;;3.50;;
57295;SDS011;43146;50.976;18.216;2023-05-07T01:23:32;9.80;;;4.80;;
57295;SDS011;43146;50.976;18.216;2023-05-07T01:25:59;12.10;;;4.50;;
57295;SDS011;43146;50.976;18.216;2023-05-07T01:28:24;11.80;;;4.80;;
57295;SDS011;43146;50.976;18.216;2023-05-07T01:30:52;10.60;;;4.20;;
57295;SDS011;43146;50.976;18.216;2023-05-07T01:33:21;8.10;;;2.90;;
57295;SDS011;43146;50.976;18.216;2023-05-07T01:35:48;9.10;;;3.70;;
57295;SDS011;43146;50.976;18.216;2023-05-07T01:38:17;8.40;;;3.00;;
57295;SDS011;43146;50.976;18.216;2023-05-07T01:40:43;11.30;;;5.50;;
57295;SDS011;43146;50.976;18.216;2023-05-07T01:43:09;7.90;;;3.30;;
57295;SDS011;43146;50.976;18.216;2023-05-07T01:45:35;9.40;;;4.00;;
57295;SDS011;43146;50.976;18.216;2023-05-07T01:48:02;8.20;;;3.50;;
57295;SDS011;43146;50.976;18.216;2023-05-07T01:50:29;9.90;;;4.00;;
57295;SDS011;43146;50.976;18.216;2023-05-07T01:52:56;8.90;;;3.60;;
57295;SDS011;43146;50.976;18.216;2023-05-07T01:55:22;10.10;;;4.30;;
57295;SDS011;43146;50.976;18.216;2023-05-07T01:57:48;12.00;;;5.50;;
57295;SDS011;43146;50.976;18.216;2023-05-07T02:00:13;11.00;;;4.10;;
57295;SDS011;43146;50.976;18.216;2023-05-07T02:02:40;10.40;;;4.20;;
57295;SDS011;43146;50.976;18.216;2023-05-07T02:05:06;11.00;;;4.20;;
57295;SDS011;43146;50.976;18.216;2023-05-07T02:07:32;7.50;;;3.30;;
57295;SDS011;43146;50.976;18.216;2023-05-07T02:09:58;8.30;;;3.20;;
57295;SDS011;43146;50.976;18.216;2023-05-07T02:12:23;10.90;;;4.30;;
57295;SDS011;43146;50.976;18.216;2023-05-07T02:14:49;10.30;;;4.60;;
57295;SDS011;43146;50.976;18.216;2023-05-07T02:17:15;12.30;;;5.50;;
57295;SDS011;43146;50.976;18.216;2023-05-07T02:19:41;9.60;;;3.70;;
57295;SDS011;43146;50.976;18.216;2023-05-07T02:22:07;10.90;;;5.50;;
57295;SDS011;43146;50.976;18.216;2023-05-07T02:24:34;8.90;;;4.30;;
57295;SDS011;43146;50.976;18.216;2023-05-07T02:27:01;11.00;;;4.50;;
57295;SDS011;43146;50.976;18.216;2023-05-07T02:29:27;14.50;;;4.20;;
57295;SDS011;43146;50.976;18.216;2023-05-07T02:31:53;9.90;;;3.70;;
57295;SDS011;43146;50.976;18.216;2023-05-07T02:34:19;8.40;;;4.10;;
57295;SDS011;43146;50.976;18.216;2023-05-07T02:36:45;9.10;;;3.90;;
57295;SDS011;43146;50.976;18.216;2023-05-07T02:39:14;11.70;;;3.80;;
57295;SDS011;43146;50.976;18.216;2023-05-07T02:41:41;13.00;;;6.50;;
57295;SDS011;43146;50.976;18.216;2023-05-07T02:44:06;10.60;;;4.20;;
57295;SDS011;43146;50.976;18.216;2023-05-07T02:46:32;11.10;;;4.80;;
57295;SDS011;43146;50.976;18.216;2023-05-07T02:48:58;7.40;;;3.20;;
57295;SDS011;43146;50.976;18.216;2023-05-07T02:51:25;8.50;;;3.40;;
57295;SDS011;43146;50.976;18.216;2023-05-07T02:53:51;9.70;;;4.30;;
57295;SDS011;43146;50.976;18.216;2023-05-07T02:56:17;9.10;;;4.10;;
57295;SDS011;43146;50.976;18.216;2023-05-07T02:58:43;8.70;;;3.00;;
57295;SDS011;43146;50.976;18.216;2023-05-07T03:01:08;9.40;;;3.30;;
57295;SDS011;43146;50.976;18.216;2023-05-07T03:03:34;9.40;;;3.60;;
57295;SDS011;43146;50.976;18.216;2023-05-07T03:06:01;11.30;;;3.60;;
57295;SDS011;43146;50.976;18.216;2023-05-07T03:08:27;6.30;;;2.70;;
57295;SDS011;43146;50.976;18.216;2023-05-07T03:10:53;8.00;;;3.00;;
57295;SDS011;43146;50.976;18.216;2023-05-07T03:13:19;9.40;;;3.30;;
57295;SDS011;43146;50.976;18.216;2023-05-07T03:15:45;5.30;;;2.20;;
57295;SDS011;43146;50.976;18.216;2023-05-07T03:18:10;7.20;;;3.20;;
57295;SDS011;43146;50.976;18.216;2023-05-07T03:20:36;8.00;;;3.20;;
57295;SDS011;43146;50.976;18.216;2023-05-07T03:23:02;10.50;;;3.00;;
57295;SDS011;43146;50.976;18.216;2023-05-07T03:25:28;5.10;;;2.40;;
57295;SDS011;43146;50.976;18.216;2023-05-07T03:27:55;8.00;;;3.20;;
57295;SDS011;43146;50.976;18.216;2023-05-07T03:30:21;6.70;;;2.60;;
57295;SDS011;43146;50.976;18.216;2023-05-07T03:32:47;7.40;;;2.80;;
57295;SDS011;43146;50.976;18.216;2023-05-07T03:35:13;7.70;;;2.90;;
57295;SDS011;43146;50.976;18.216;2023-05-07T03:37:39;5.40;;;2.60;;
57295;SDS011;43146;50.976;18.216;2023-05-07T03:40:06;6.00;;;2.40;;
57295;SDS011;43146;50.976;18.216;2023-05-07T03:42:33;7.90;;;2.50;;
57295;SDS011;43146;50.976;18.216;2023-05-07T03:44:59;6.00;;;2.40;;
57295;SDS011;43146;50.976;18.216;2023-05-07T03:47:24;6.90;;;2.40;;
57295;SDS011;43146;50.976;18.216;2023-05-07T03:49:50;5.30;;;2.40;;
57295;SDS011;43146;50.976;18.216;2023-05-07T03:52:18;6.60;;;2.30;;
57295;SDS011;43146;50.976;18.216;2023-05-07T03:54:49;4.50;;;2.10;;
57295;SDS011;43146;50.976;18.216;2023-05-07T03:57:15;5.80;;;2.30;;
57295;SDS011;43146;50.976;18.216;2023-05-07T03:59:41;5.20;;;2.30;;
57295;SDS011;43146;50.976;18.216;2023-05-07T04:02:07;4.90;;;2.00;;
57295;SDS011;43146;50.976;18.216;2023-05-07T04:04:32;6.40;;;2.40;;
57295;SDS011;43146;50.976;18.216;2023-05-07T04:06:58;7.30;;;2.40;;
57295;SDS011;43146;50.976;18.216;2023-05-07T04:09:28;8.40;;;2.90;;
57295;SDS011;43146;50.976;18.216;2023-05-07T04:11:55;6.90;;;2.80;;
57295;SDS011;43146;50.976;18.216;2023-05-07T04:14:21;7.30;;;2.90;;
57295;SDS011;43146;50.976;18.216;2023-05-07T04:16:46;8.30;;;3.70;;
57295;SDS011;43146;50.976;18.216;2023-05-07T04:19:12;9.80;;;3.90;;
57295;SDS011;43146;50.976;18.216;2023-05-07T04:21:38;10.90;;;4.40;;
57295;SDS011;43146;50.976;18.216;2023-05-07T04:24:04;8.50;;;3.10;;
57295;SDS011;43146;50.976;18.216;2023-05-07T04:26:30;9.00;;;4.00;;
57295;SDS011;43146;50.976;18.216;2023-05-07T04:28:57;9.50;;;3.80;;
57295;SDS011;43146;50.976;18.216;2023-05-07T04:31:24;9.00;;;3.60;;
57295;SDS011;43146;50.976;18.216;2023-05-07T04:33:50;10.40;;;3.70;;
57295;SDS011;43146;50.976;18.216;2023-05-07T04:36:16;8.90;;;3.30;;
57295;SDS011;43146;50.976;18.216;2023-05-07T04:38:42;8.60;;;3.00;;
57295;SDS011;43146;50.976;18.216;2023-05-07T04:41:09;7.80;;;3.40;;
57295;SDS011;43146;50.976;18.216;2023-05-07T04:43:35;10.20;;;3.70;;
57295;SDS011;43146;50.976;18.216;2023-05-07T04:46:01;9.80;;;3.30;;
57295;SDS011;43146;50.976;18.216;2023-05-07T04:48:27;8.50;;;3.20;;
57295;SDS011;43146;50.976;18.216;2023-05-07T04:50:53;7.90;;;2.90;;
57295;SDS011;43146;50.976;18.216;2023-05-07T04:53:19;6.10;;;2.60;;
57295;SDS011;43146;50.976;18.216;2023-05-07T04:55:45;9.90;;;4.10;;
57295;SDS011;43146;50.976;18.216;2023-05-07T04:58:11;9.90;;;3.90;;
57295;SDS011;43146;50.976;18.216;2023-05-07T05:00:37;8.50;;;3.10;;
57295;SDS011;43146;50.976;18.216;2023-05-07T05:03:06;8.10;;;3.70;;
57295;SDS011;43146;50.976;18.216;2023-05-07T05:05:32;7.90;;;3.10;;
57295;SDS011;43146;50.976;18.216;2023-05-07T05:07:58;5.80;;;2.50;;
57295;SDS011;43146;50.976;18.216;2023-05-07T05:10:23;9.00;;;3.80;;
57295;SDS011;43146;50.976;18.216;2023-05-07T05:12:50;9.80;;;3.80;;
57295;SDS011;43146;50.976;18.216;2023-05-07T05:15:16;7.70;;;3.10;;
57295;SDS011;43146;50.976;18.216;2023-05-07T05:17:42;7.20;;;2.80;;
57295;SDS011;43146;50.976;18.216;2023-05-07T05:20:08;7.20;;;2.60;;
57295;SDS011;43146;50.976;18.216;2023-05-07T05:22:37;7.90;;;3.10;;
57295;SDS011;43146;50.976;18.216;2023-05-07T05:25:03;5.00;;;2.30;;
57295;SDS011;43146;50.976;18.216;2023-05-07T05:27:30;6.50;;;2.70;;
57295;SDS011;43146;50.976;18.216;2023-05-07T05:29:55;9.90;;;3.20;;
57295;SDS011;43146;50.976;18.216;2023-05-07T05:32:21;8.60;;;3.20;;
57295;SDS011;43146;50.976;18.216;2023-05-07T05:34:47;5.90;;;2.30;;
57295;SDS011;43146;50.976;18.216;2023-05-07T05:37:13;7.50;;;3.40;;
57295;SDS011;43146;50.976;18.216;2023-05-07T05:39:39;7.00;;;2.60;;
57295;SDS011;43146;50.976;18.216;2023-05-07T05:42:05;5.10;;;2.00;;
57295;SDS011;43146;50.976;18.216;2023-05-07T05:44:30;8.30;;;3.50;;
57295;SDS011;43146;50.976;18.216;2023-05-07T05:46:56;9.60;;;3.40;;
57295;SDS011;43146;50.976;18.216;2023-05-07T05:49:24;5.10;;;2.50;;
57295;SDS011;43146;50.976;18.216;2023-05-07T05:51:51;7.90;;;3.10;;
57295;SDS011;43146;50.976;18.216;2023-05-07T05:54:17;9.10;;;4.30;;
57295;SDS011;43146;50.976;18.216;2023-05-07T05:56:42;7.30;;;3.20;;
57295;SDS011;43146;50.976;18.216;2023-05-07T05:59:08;8.70;;;3.10;;
57295;SDS011;43146;50.976;18.216;2023-05-07T06:01:34;5.20;;;2.40;;
57295;SDS011;43146;50.976;18.216;2023-05-07T06:04:00;7.90;;;3.10;;
57295;SDS011;43146;50.976;18.216;2023-05-07T06:06:26;6.70;;;2.60;;
57295;SDS011;43146;50.976;18.216;2023-05-07T06:08:52;7.50;;;3.00;;
57295;SDS011;43146;50.976;18.216;2023-05-07T06:11:18;8.50;;;3.00;;
57295;SDS011;43146;50.976;18.216;2023-05-07T06:13:44;7.20;;;2.30;;
57295;SDS011;43146;50.976;18.216;2023-05-07T06:16:09;7.50;;;2.80;;
57295;SDS011;43146;50.976;18.216;2023-05-07T06:18:35;7.60;;;3.00;;
57295;SDS011;43146;50.976;18.216;2023-05-07T06:21:03;9.30;;;3.20;;
57295;SDS011;43146;50.976;18.216;2023-05-07T06:23:29;6.00;;;2.70;;
57295;SDS011;43146;50.976;18.216;2023-05-07T06:25:56;7.90;;;3.20;;
57295;SDS011;43146;50.976;18.216;2023-05-07T06:28:22;9.50;;;3.70;;
57295;SDS011;43146;50.976;18.216;2023-05-07T06:30:48;7.00;;;3.30;;
57295;SDS011;43146;50.976;18.216;2023-05-07T06:33:15;9.20;;;3.80;;
57295;SDS011;43146;50.976;18.216;2023-05-07T06:35:41;9.50;;;3.80;;
57295;SDS011;43146;50.976;18.216;2023-05-07T06:38:07;10.90;;;4.80;;
57295;SDS011;43146;50.976;18.216;2023-05-07T06:40:33;8.50;;;3.60;;
57295;SDS011;43146;50.976;18.216;2023-05-07T06:42:59;8.70;;;3.50;;
57295;SDS011;43146;50.976;18.216;2023-05-07T06:45:25;7.80;;;3.30;;
57295;SDS011;43146;50.976;18.216;2023-05-07T06:47:51;10.00;;;4.00;;
57295;SDS011;43146;50.976;18.216;2023-05-07T06:50:17;8.90;;;3.60;;
57295;SDS011;43146;50.976;18.216;2023-05-07T06:52:44;11.90;;;4.80;;
57295;SDS011;43146;50.976;18.216;2023-05-07T06:55:10;9.70;;;4.30;;
57295;SDS011;43146;50.976;18.216;2023-05-07T06:57:37;7.60;;;3.00;;
57295;SDS011;43146;50.976;18.216;2023-05-07T07:00:04;10.00;;;3.80;;
57295;SDS011;43146;50.976;18.216;2023-05-07T07:02:34;9.60;;;4.00;;
57295;SDS011;43146;50.976;18.216;2023-05-07T07:05:00;9.70;;;4.60;;
57295;SDS011;43146;50.976;18.216;2023-05-07T07:07:26;10.50;;;4.20;;
57295;SDS011;43146;50.976;18.216;2023-05-07T07:09:51;9.10;;;4.30;;
57295;SDS011;43146;50.976;18.216;2023-05-07T07:12:17;8.10;;;3.60;;
57295;SDS011;43146;50.976;18.216;2023-05-07T07:14:43;8.40;;;3.60;;
57295;SDS011;43146;50.976;18.216;2023-05-07T07:17:09;8.70;;;3.90;;
57295;SDS011;43146;50.976;18.216;2023-05-07T07:19:35;10.40;;;3.60;;
57295;SDS011;43146;50.976;18.216;2023-05-07T07:22:01;11.80;;;4.70;;
57295;SDS011;43146;50.976;18.216;2023-05-07T07:24:27;10.40;;;4.20;;
57295;SDS011;43146;50.976;18.216;2023-05-07T07:26:53;10.30;;;4.90;;
57295;SDS011;43146;50.976;18.216;2023-05-07T07:29:21;11.70;;;5.20;;
57295;SDS011;43146;50.976;18.216;2023-05-07T07:31:47;13.40;;;7.00;;
57295;SDS011;43146;50.976;18.216;2023-05-07T07:34:14;8.70;;;4.20;;
57295;SDS011;43146;50.976;18.216;2023-05-07T07:36:41;8.70;;;3.80;;
57295;SDS011;43146;50.976;18.216;2023-05-07T07:39:07;8.40;;;3.40;;
57295;SDS011;43146;50.976;18.216;2023-05-07T07:41:33;10.80;;;4.90;;
57295;SDS011;43146;50.976;18.216;2023-05-07T07:43:59;10.70;;;5.00;;
57295;SDS011;43146;50.976;18.216;2023-05-07T07:46:25;12.60;;;6.10;;
57295;SDS011;43146;50.976;18.216;2023-05-07T07:48:52;9.90;;;4.40;;
57295;SDS011;43146;50.976;18.216;2023-05-07T07:51:18;9.50;;;4.10;;
57295;SDS011;43146;50.976;18.216;2023-05-07T07:53:43;10.50;;;5.80;;
57295;SDS011;43146;50.976;18.216;2023-05-07T07:56:09;10.80;;;5.90;;
57295;SDS011;43146;50.976;18.216;2023-05-07T07:58:35;10.10;;;3.90;;
57295;SDS011;43146;50.976;18.216;2023-05-07T08:01:03;9.90;;;4.20;;
57295;SDS011;43146;50.976;18.216;2023-05-07T08:03:30;10.30;;;5.00;;
57295;SDS011;43146;50.976;18.216;2023-05-07T08:05:58;14.40;;;5.30;;
57295;SDS011;43146;50.976;18.216;2023-05-07T08:08:24;10.60;;;4.70;;
57295;SDS011;43146;50.976;18.216;2023-05-07T08:10:50;12.40;;;5.80;;
57295;SDS011;43146;50.976;18.216;2023-05-07T08:13:17;10.50;;;4.70;;
57295;SDS011;43146;50.976;18.216;2023-05-07T08:15:43;11.60;;;5.10;;
57295;SDS011;43146;50.976;18.216;2023-05-07T08:18:09;9.80;;;4.10;;
57295;SDS011;43146;50.976;18.216;2023-05-07T08:20:35;10.90;;;5.00;;
57295;SDS011;43146;50.976;18.216;2023-05-07T08:23:05;13.50;;;4.90;;
57295;SDS011;43146;50.976;18.216;2023-05-07T08:25:35;12.10;;;5.30;;
57295;SDS011;43146;50.976;18.216;2023-05-07T08:28:02;10.90;;;4.90;;
57295;SDS011;43146;50.976;18.216;2023-05-07T08:30:28;11.50;;;5.30;;
57295;SDS011;43146;50.976;18.216;2023-05-07T08:32:54;12.20;;;5.20;;
57295;SDS011;43146;50.976;18.216;2023-05-07T08:35:23;10.30;;;5.10;;
57295;SDS011;43146;50.976;18.216;2023-05-07T08:37:51;12.10;;;5.10;;
57295;SDS011;43146;50.976;18.216;2023-05-07T08:40:20;11.40;;;5.50;;
57295;SDS011;43146;50.976;18.216;2023-05-07T08:42:48;11.20;;;5.20;;
57295;SDS011;43146;50.976;18.216;2023-05-07T08:45:15;10.50;;;4.60;;
57295;SDS011;43146;50.976;18.216;2023-05-07T08:47:43;11.10;;;5.40;;
57295;SDS011;43146;50.976;18.216;2023-05-07T08:50:12;9.20;;;4.40;;
57295;SDS011;43146;50.976;18.216;2023-05-07T08:52:39;10.10;;;4.70;;
57295;SDS011;43146;50.976;18.216;2023-05-07T08:55:06;9.90;;;4.60;;
57295;SDS011;43146;50.976;18.216;2023-05-07T08:57:33;10.20;;;5.10;;
57295;SDS011;43146;50.976;18.216;2023-05-07T08:59:59;12.00;;;5.80;;
57295;SDS011;43146;50.976;18.216;2023-05-07T09:02:25;8.80;;;3.80;;
57295;SDS011;43146;50.976;18.216;2023-05-07T09:04:52;8.80;;;3.70;;
57295;SDS011;43146;50.976;18.216;2023-05-07T09:07:19;11.40;;;5.40;;
57295;SDS011;43146;50.976;18.216;2023-05-07T09:09:46;11.70;;;4.80;;
57295;SDS011;43146;50.976;18.216;2023-05-07T09:12:12;10.30;;;5.00;;
57295;SDS011;43146;50.976;18.216;2023-05-07T09:14:39;9.80;;;3.50;;
57295;SDS011;43146;50.976;18.216;2023-05-07T09:17:05;13.40;;;5.20;;
57295;SDS011;43146;50.976;18.216;2023-05-07T09:19:31;11.70;;;4.20;;
57295;SDS011;43146;50.976;18.216;2023-05-07T09:22:01;5.70;;;2.50;;
57295;SDS011;43146;50.976;18.216;2023-05-07T09:24:29;9.70;;;4.30;;
57295;SDS011;43146;50.976;18.216;2023-05-07T09:27:00;8.80;;;4.10;;
57295;SDS011;43146;50.976;18.216;2023-05-07T09:29:27;8.70;;;3.20;;
57295;SDS011;43146;50.976;18.216;2023-05-07T09:32:07;10.20;;;4.10;;
57295;SDS011;43146;50.976;18.216;2023-05-07T09:34:34;9.70;;;4.50;;
57295;SDS011;43146;50.976;18.216;2023-05-07T09:37:04;8.90;;;3.60;;
57295;SDS011;43146;50.976;18.216;2023-05-07T09:42:06;7.10;;;2.60;;
57295;SDS011;43146;50.976;18.216;2023-05-07T09:44:32;6.80;;;2.80;;
57295;SDS011;43146;50.976;18.216;2023-05-07T09:47:00;8.70;;;3.40;;
57295;SDS011;43146;50.976;18.216;2023-05-07T09:49:27;7.40;;;3.00;;
57295;SDS011;43146;50.976;18.216;2023-05-07T09:51:57;8.70;;;3.60;;
57295;SDS011;43146;50.976;18.216;2023-05-07T09:54:26;7.10;;;3.00;;
57295;SDS011;43146;50.976;18.216;2023-05-07T09:56:56;7.90;;;3.80;;
57295;SDS011;43146;50.976;18.216;2023-05-07T09:59:22;10.10;;;3.00;;
57295;SDS011;43146;50.976;18.216;2023-05-07T10:01:48;6.90;;;2.90;;
57295;SDS011;43146;50.976;18.216;2023-05-07T10:04:14;8.90;;;3.80;;
57295;SDS011;43146;50.976;18.216;2023-05-07T10:06:40;9.80;;;3.80;;
57295;SDS011;43146;50.976;18.216;2023-05-07T10:09:10;8.20;;;3.60;;
57295;SDS011;43146;50.976;18.216;2023-05-07T10:11:36;8.30;;;3.10;;
57295;SDS011;43146;50.976;18.216;2023-05-07T10:14:02;8.90;;;4.10;;
57295;SDS011;43146;50.976;18.216;2023-05-07T10:16:32;11.00;;;4.40;;
57295;SDS011;43146;50.976;18.216;2023-05-07T10:19:05;11.20;;;3.40;;
57295;SDS011;43146;50.976;18.216;2023-05-07T10:21:39;6.70;;;2.60;;
57295;SDS011;43146;50.976;18.216;2023-05-07T10:24:08;6.60;;;2.80;;
57295;SDS011;43146;50.976;18.216;2023-05-07T10:26:43;5.60;;;2.40;;
57295;SDS011;43146;50.976;18.216;2023-05-07T10:29:14;9.20;;;3.90;;
57295;SDS011;43146;50.976;18.216;2023-05-07T10:34:24;8.40;;;3.80;;
57295;SDS011;43146;50.976;18.216;2023-05-07T10:36:54;8.50;;;3.60;;
57295;SDS011;43146;50.976;18.216;2023-05-07T10:39:22;8.80;;;3.60;;
57295;SDS011;43146;50.976;18.216;2023-05-07T10:41:48;9.30;;;3.20;;
57295;SDS011;43146;50.976;18.216;2023-05-07T10:44:27;7.90;;;3.10;;
57295;SDS011;43146;50.976;18.216;2023-05-07T10:47:04;7.80;;;2.90;;
57295;SDS011;43146;50.976;18.216;2023-05-07T10:49:30;6.50;;;2.80;;
57295;SDS011;43146;50.976;18.216;2023-05-07T10:52:15;10.40;;;4.20;;
57295;SDS011;43146;50.976;18.216;2023-05-07T10:54:43;8.40;;;3.40;;
57295;SDS011;43146;50.976;18.216;2023-05-07T10:57:52;8.80;;;3.20;;
57295;SDS011;43146;50.976;18.216;2023-05-07T11:00:01;6.90;;;2.70;;
57295;SDS011;43146;50.976;18.216;2023-05-07T11:03:04;9.80;;;4.30;;
57295;SDS011;43146;50.976;18.216;2023-05-07T11:05:26;8.20;;;3.40;;
57295;SDS011;43146;50.976;18.216;2023-05-07T11:07:54;9.10;;;3.60;;
57295;SDS011;43146;50.976;18.216;2023-05-07T11:10:21;9.60;;;4.40;;
57295;SDS011;43146;50.976;18.216;2023-05-07T11:12:48;9.10;;;4.10;;
57295;SDS011;43146;50.976;18.216;2023-05-07T11:15:33;8.50;;;3.70;;
57295;SDS011;43146;50.976;18.216;2023-05-07T11:18:02;9.10;;;3.80;;
57295;SDS011;43146;50.976;18.216;2023-05-07T11:25:58;11.30;;;4.30;;
57295;SDS011;43146;50.976;18.216;2023-05-07T11:28:29;9.40;;;3.90;;
57295;SDS011;43146;50.976;18.216;2023-05-07T11:30:56;10.60;;;4.40;;
57295;SDS011;43146;50.976;18.216;2023-05-07T11:33:23;9.60;;;4.50;;
57295;SDS011;43146;50.976;18.216;2023-05-07T11:35:52;10.50;;;4.80;;
57295;SDS011;43146;50.976;18.216;2023-05-07T11:38:19;12.30;;;6.70;;
57295;SDS011;43146;50.976;18.216;2023-05-07T11:40:52;13.80;;;6.40;;
57295;SDS011;43146;50.976;18.216;2023-05-07T11:43:24;12.00;;;6.00;;
57295;SDS011;43146;50.976;18.216;2023-05-07T11:45:50;11.00;;;4.20;;
57295;SDS011;43146;50.976;18.216;2023-05-07T11:48:17;8.90;;;3.80;;
57295;SDS011;43146;50.976;18.216;2023-05-07T11:50:52;11.70;;;4.40;;
57295;SDS011;43146;50.976;18.216;2023-05-07T11:53:20;8.90;;;4.40;;
57295;SDS011;43146;50.976;18.216;2023-05-07T11:55:56;12.20;;;4.30;;
57295;SDS011;43146;50.976;18.216;2023-05-07T11:58:23;11.10;;;5.00;;
57295;SDS011;43146;50.976;18.216;2023-05-07T12:00:50;12.10;;;5.40;;
57295;SDS011;43146;50.976;18.216;2023-05-07T12:03:19;11.00;;;4.80;;
57295;SDS011;43146;50.976;18.216;2023-05-07T12:05:45;14.20;;;5.10;;
57295;SDS011;43146;50.976;18.216;2023-05-07T12:08:15;13.00;;;5.80;;
57295;SDS011;43146;50.976;18.216;2023-05-07T12:10:42;12.60;;;6.20;;
57295;SDS011;43146;50.976;18.216;2023-05-07T12:13:15;12.30;;;5.70;;
57295;SDS011;43146;50.976;18.216;2023-05-07T12:15:45;10.30;;;4.30;;
57295;SDS011;43146;50.976;18.216;2023-05-07T12:18:12;11.50;;;5.60;;
57295;SDS011;43146;50.976;18.216;2023-05-07T12:20:38;11.40;;;5.40;;
57295;SDS011;43146;50.976;18.216;2023-05-07T12:23:05;11.80;;;6.10;;
57295;SDS011;43146;50.976;18.216;2023-05-07T12:25:31;13.20;;;6.10;;
57295;SDS011;43146;50.976;18.216;2023-05-07T12:27:59;11.20;;;4.90;;
57295;SDS011;43146;50.976;18.216;2023-05-07T12:30:26;11.80;;;5.40;;
57295;SDS011;43146;50.976;18.216;2023-05-07T12:32:55;11.20;;;5.50;;
57295;SDS011;43146;50.976;18.216;2023-05-07T12:35:28;13.10;;;5.30;;
57295;SDS011;43146;50.976;18.216;2023-05-07T12:37:58;8.00;;;3.50;;
57295;SDS011;43146;50.976;18.216;2023-05-07T12:40:46;9.40;;;4.20;;
57295;SDS011;43146;50.976;18.216;2023-05-07T12:43:17;11.70;;;5.40;;
57295;SDS011;43146;50.976;18.216;2023-05-07T12:45:48;11.10;;;5.40;;
57295;SDS011;43146;50.976;18.216;2023-05-07T12:48:15;10.80;;;5.10;;
57295;SDS011;43146;50.976;18.216;2023-05-07T12:50:41;13.50;;;5.80;;
57295;SDS011;43146;50.976;18.216;2023-05-07T12:53:09;8.80;;;3.90;;
57295;SDS011;43146;50.976;18.216;2023-05-07T12:55:44;12.40;;;5.50;;
57295;SDS011;43146;50.976;18.216;2023-05-07T12:58:15;10.30;;;4.90;;
57295;SDS011;43146;50.976;18.216;2023-05-07T13:00:42;12.70;;;5.70;;
57295;SDS011;43146;50.976;18.216;2023-05-07T13:03:09;12.40;;;5.90;;
57295;SDS011;43146;50.976;18.216;2023-05-07T13:05:36;12.20;;;5.50;;
57295;SDS011;43146;50.976;18.216;2023-05-07T13:08:02;12.10;;;5.10;;
57295;SDS011;43146;50.976;18.216;2023-05-07T13:10:28;12.50;;;5.90;;
57295;SDS011;43146;50.976;18.216;2023-05-07T13:12:54;12.90;;;6.40;;
57295;SDS011;43146;50.976;18.216;2023-05-07T13:15:20;12.00;;;5.70;;
57295;SDS011;43146;50.976;18.216;2023-05-07T13:17:47;10.90;;;5.00;;
57295;SDS011;43146;50.976;18.216;2023-05-07T13:20:13;12.80;;;5.60;;
57295;SDS011;43146;50.976;18.216;2023-05-07T13:22:39;9.40;;;4.40;;
57295;SDS011;43146;50.976;18.216;2023-05-07T13:25:06;11.20;;;5.00;;
57295;SDS011;43146;50.976;18.216;2023-05-07T13:27:32;11.30;;;5.60;;
57295;SDS011;43146;50.976;18.216;2023-05-07T13:30:02;10.50;;;5.10;;
57295;SDS011;43146;50.976;18.216;2023-05-07T13:32:29;9.50;;;4.90;;
57295;SDS011;43146;50.976;18.216;2023-05-07T13:34:55;10.50;;;5.20;;
57295;SDS011;43146;50.976;18.216;2023-05-07T13:37:21;9.80;;;4.70;;
57295;SDS011;43146;50.976;18.216;2023-05-07T13:39:47;11.40;;;5.60;;
57295;SDS011;43146;50.976;18.216;2023-05-07T13:42:13;11.70;;;5.90;;
57295;SDS011;43146;50.976;18.216;2023-05-07T13:44:39;13.10;;;6.60;;
57295;SDS011;43146;50.976;18.216;2023-05-07T13:47:05;11.70;;;5.90;;
57295;SDS011;43146;50.976;18.216;2023-05-07T13:49:31;13.30;;;6.60;;
57295;SDS011;43146;50.976;18.216;2023-05-07T13:51:57;13.20;;;7.00;;
57295;SDS011;43146;50.976;18.216;2023-05-07T13:54:23;10.10;;;4.60;;
57295;SDS011;43146;50.976;18.216;2023-05-07T13:56:48;10.50;;;5.10;;
57295;SDS011;43146;50.976;18.216;2023-05-07T13:59:15;10.20;;;5.10;;
57295;SDS011;43146;50.976;18.216;2023-05-07T14:01:40;13.70;;;6.10;;
57295;SDS011;43146;50.976;18.216;2023-05-07T14:04:06;13.10;;;5.00;;
57295;SDS011;43146;50.976;18.216;2023-05-07T14:06:35;14.50;;;6.20;;
57295;SDS011;43146;50.976;18.216;2023-05-07T14:09:00;12.20;;;5.40;;
57295;SDS011;43146;50.976;18.216;2023-05-07T14:11:26;13.50;;;6.10;;
57295;SDS011;43146;50.976;18.216;2023-05-07T14:14:01;9.70;;;4.40;;
57295;SDS011;43146;50.976;18.216;2023-05-07T14:16:27;11.80;;;5.30;;
57295;SDS011;43146;50.976;18.216;2023-05-07T14:18:53;15.30;;;6.90;;
57295;SDS011;43146;50.976;18.216;2023-05-07T14:21:19;11.80;;;6.50;;
57295;SDS011;43146;50.976;18.216;2023-05-07T14:23:45;12.70;;;5.50;;
57295;SDS011;43146;50.976;18.216;2023-05-07T14:26:11;11.20;;;5.00;;
57295;SDS011;43146;50.976;18.216;2023-05-07T14:28:37;12.10;;;5.80;;
57295;SDS011;43146;50.976;18.216;2023-05-07T14:31:04;12.70;;;6.00;;
57295;SDS011;43146;50.976;18.216;2023-05-07T14:33:31;10.20;;;4.80;;
57295;SDS011;43146;50.976;18.216;2023-05-07T14:35:58;12.10;;;5.90;;
57295;SDS011;43146;50.976;18.216;2023-05-07T14:38:24;10.70;;;4.50;;